Oak Run, California
Current Conditions -  °F | °C
As of 12:53 AM on Wednesday 22 Oct 2014 (Local Time) from KRDD Reporting Station
Clear Clear  
Wind Chill: 51°   Ceiling: Unl
Heat Index: 51°   Visibility: 10mi
Dew Point: 48°   Wind: 3mph
Humidity: 89%   Direction: 330°NNW
Pressure: 30.03"   Gusts: NA
Location:  40.69°N, 122.02°W
Report Text: KRDD 220753Z AUTO 33003KT 10SM CLR 11/09 A3003 RMK AO2 SLP167 T01060089 402000078
Loading
Personal Weather Stations






























Interactive Weather Map
Tropical Storm Tracking
New forecast layout! Learn more

10-Day Weather Forecast

Advertisements
Track Severe Weather on mobile